createdAt,value
2019-01-22T00:00:33.912Z,86.03
2019-01-22T00:03:00.997Z,86.08
2019-01-22T00:05:28.112Z,86.11
2019-01-22T00:07:55.417Z,86.04
2019-01-22T00:10:22.683Z,86.01
2019-01-22T00:12:49.993Z,86.03
2019-01-22T00:15:17.167Z,86.00
2019-01-22T00:17:44.434Z,86.03
2019-01-22T00:20:12.117Z,86.04
2019-01-22T00:22:39.247Z,86.10
2019-01-22T00:25:07.368Z,86.18
2019-01-22T00:27:34.574Z,86.17
2019-01-22T00:30:01.818Z,86.15
2019-01-22T00:32:31.491Z,86.05
2019-01-22T00:34:58.657Z,85.84
2019-01-22T00:37:25.905Z,85.58
2019-01-22T00:39:53.121Z,85.38
2019-01-22T00:42:20.323Z,85.22
2019-01-22T00:44:47.623Z,85.05
2019-01-22T00:47:15.103Z,84.95
2019-01-22T00:49:42.292Z,84.95
2019-01-22T00:52:09.503Z,85.10
2019-01-22T00:54:36.700Z,85.28
2019-01-22T00:57:03.899Z,85.42
2019-01-22T00:59:31.109Z,85.46
2019-01-22T01:01:58.273Z,85.43
2019-01-22T01:04:25.352Z,85.35
2019-01-22T01:06:52.553Z,85.40
2019-01-22T01:09:19.700Z,85.60
2019-01-22T01:11:46.901Z,85.72
2019-01-22T01:14:14.146Z,85.73
2019-01-22T01:16:41.334Z,85.71
2019-01-22T01:19:08.804Z,85.56
2019-01-22T01:21:36.006Z,85.40
2019-01-22T01:24:03.287Z,85.32
2019-01-22T01:26:30.490Z,85.29
2019-01-22T01:28:57.988Z,85.33
2019-01-22T01:31:25.181Z,85.39
2019-01-22T01:33:52.394Z,85.48
2019-01-22T01:36:19.587Z,85.65
2019-01-22T01:38:46.789Z,85.77
2019-01-22T01:41:14.033Z,85.87
2019-01-22T01:43:41.590Z,85.97
2019-01-22T01:46:08.690Z,86.09
2019-01-22T01:48:35.863Z,86.25
2019-01-22T01:51:02.965Z,86.30
2019-01-22T01:53:30.172Z,86.45
2019-01-22T01:55:57.361Z,86.59
2019-01-22T01:58:24.597Z,86.63
2019-01-22T02:00:51.773Z,86.71
2019-01-22T02:03:19.206Z,86.79
2019-01-22T02:05:46.325Z,86.84
2019-01-22T02:08:13.823Z,86.90
2019-01-22T02:10:40.984Z,86.99
2019-01-22T02:13:13.865Z,87.04
2019-01-22T02:15:55.805Z,87.09
2019-01-22T02:18:59.119Z,87.06
2019-01-22T02:22:03.964Z,87.06
2019-01-22T02:24:57.458Z,87.16
2019-01-22T02:27:54.143Z,87.24
2019-01-22T02:30:46.304Z,87.33
2019-01-22T02:33:45.127Z,87.45
2019-01-22T02:36:41.743Z,87.49
2019-01-22T02:39:44.673Z,87.50
2019-01-22T02:42:57.471Z,87.49
2019-01-22T02:45:47.059Z,87.43
2019-01-22T02:48:20.602Z,87.45
2019-01-22T02:51:25.488Z,87.57
2019-01-22T02:54:20.766Z,87.64
2019-01-22T02:57:29.969Z,87.66
2019-01-22T03:00:38.866Z,87.67
2019-01-22T03:03:49.334Z,87.57
2019-01-22T03:07:19.503Z,87.41
2019-01-22T03:09:56.440Z,87.26
2019-01-22T03:13:16.177Z,87.25
2019-01-22T03:16:14.698Z,87.23
2019-01-22T03:19:03.892Z,87.15
2019-01-22T03:22:18.811Z,87.08
2019-01-22T03:25:34.161Z,87.02
2019-01-22T03:28:26.950Z,86.84
2019-01-22T03:31:32.877Z,86.71
2019-01-22T03:34:26.819Z,86.59
2019-01-22T03:37:31.891Z,86.50
2019-01-22T03:40:27.865Z,86.50
2019-01-22T03:43:27.529Z,86.59
2019-01-22T03:46:35.826Z,86.70
2019-01-22T03:49:25.520Z,86.94
2019-01-22T03:52:13.018Z,87.12
2019-01-22T03:55:34.218Z,87.20
2019-01-22T03:58:07.606Z,87.20
2019-01-22T04:00:53.574Z,87.23
2019-01-22T04:03:20.736Z,87.36
2019-01-22T04:05:50.439Z,87.53
2019-01-22T04:08:17.654Z,87.54
2019-01-22T04:10:57.084Z,87.61
2019-01-22T04:13:24.398Z,87.68
2019-01-22T04:15:51.632Z,87.73
2019-01-22T04:18:18.816Z,87.68
2019-01-22T04:20:47.550Z,87.60
2019-01-22T04:23:36.072Z,87.47
2019-01-22T04:26:40.659Z,87.45
2019-01-22T04:29:22.213Z,87.40
2019-01-22T04:32:04.499Z,87.42
2019-01-22T04:35:07.139Z,87.50
2019-01-22T04:38:23.160Z,87.57
2019-01-22T04:41:39.748Z,87.65
2019-01-22T04:44:30.808Z,87.79
2019-01-22T04:47:42.586Z,87.92
2019-01-22T04:50:32.745Z,87.95
2019-01-22T04:53:16.965Z,87.97
2019-01-22T04:56:24.783Z,87.96
2019-01-22T04:59:25.086Z,87.93
2019-01-22T05:02:43.505Z,87.95
2019-01-22T05:05:33.673Z,87.81
2019-01-22T05:08:38.061Z,87.70
2019-01-22T05:11:24.546Z,87.64
2019-01-22T05:14:45.674Z,87.64
2019-01-22T05:18:06.236Z,87.63
2019-01-22T05:20:49.353Z,87.72
2019-01-22T05:23:54.014Z,87.92
2019-01-22T05:27:00.198Z,88.11
2019-01-22T05:29:39.895Z,88.25
2019-01-22T05:32:32.895Z,88.32
2019-01-22T05:35:42.192Z,88.32
2019-01-22T05:38:42.860Z,88.24
2019-01-22T05:41:45.711Z,88.03
2019-01-22T05:44:41.197Z,87.80
2019-01-22T05:47:36.034Z,87.45
2019-01-22T05:50:39.164Z,87.13
2019-01-22T05:53:30.451Z,86.71
2019-01-22T05:56:06.013Z,86.19
2019-01-22T05:59:16.342Z,85.26
2019-01-22T06:02:02.337Z,84.42
2019-01-22T06:05:20.224Z,83.48
2019-01-22T06:08:13.844Z,82.68
2019-01-22T06:11:20.338Z,80.54
2019-01-22T06:14:25.738Z,79.53
2019-01-22T06:17:32.851Z,79.54
2019-01-22T06:20:37.703Z,80.01
2019-01-22T06:23:45.566Z,80.28
2019-01-22T06:26:40.670Z,80.42
2019-01-22T06:29:49.434Z,80.15
2019-01-22T06:33:01.588Z,79.58
2019-01-22T06:35:57.772Z,78.62
2019-01-22T06:39:04.910Z,78.38
2019-01-22T06:42:32.381Z,78.54
2019-01-22T06:45:47.407Z,78.93
2019-01-22T06:48:57.852Z,78.40
2019-01-22T06:51:44.880Z,78.90
2019-01-22T06:55:00.095Z,79.37
2019-01-22T06:58:10.376Z,79.49
2019-01-22T07:01:08.750Z,79.90
2019-01-22T07:03:47.343Z,80.08
2019-01-22T07:06:56.439Z,80.36
2019-01-22T07:10:00.318Z,81.06
2019-01-22T07:12:54.483Z,82.26
2019-01-22T07:16:01.425Z,82.43
2019-01-22T07:18:40.721Z,82.24
2019-01-22T07:22:03.644Z,81.38
2019-01-22T07:25:11.857Z,80.54
2019-01-22T07:28:14.215Z,80.55
2019-01-22T07:30:59.300Z,80.02
2019-01-22T07:33:52.080Z,78.66
2019-01-22T07:37:00.442Z,78.89
2019-01-22T07:39:59.588Z,79.26
2019-01-22T07:42:44.973Z,79.92
2019-01-22T07:45:42.510Z,79.75
2019-01-22T07:48:14.385Z,80.07
2019-01-22T07:51:20.474Z,79.05
2019-01-22T07:54:28.513Z,79.10
2019-01-22T07:57:55.808Z,80.22
2019-01-22T08:00:50.809Z,81.17
2019-01-22T08:04:17.056Z,81.84
2019-01-22T08:07:02.202Z,82.27
2019-01-22T08:10:22.284Z,82.63
2019-01-22T08:13:39.176Z,82.21
2019-01-22T08:16:57.059Z,81.97
2019-01-22T08:19:59.465Z,82.27
2019-01-22T08:23:13.320Z,82.17
2019-01-22T08:26:04.387Z,82.12
2019-01-22T08:28:58.656Z,82.74
2019-01-22T08:32:18.167Z,82.90
2019-01-22T08:35:27.825Z,82.02
2019-01-22T08:38:16.129Z,81.05
2019-01-22T08:41:32.765Z,80.28
2019-01-22T08:44:30.819Z,80.20
2019-01-22T08:47:30.462Z,80.08
2019-01-22T08:50:33.213Z,79.86
2019-01-22T08:53:53.901Z,78.83
2019-01-22T08:57:00.265Z,78.72
2019-01-22T08:59:51.956Z,79.02
2019-01-22T09:02:54.004Z,78.53
2019-01-22T09:06:11.525Z,78.33
2019-01-22T09:08:57.254Z,78.21
2019-01-22T09:12:12.075Z,77.68
2019-01-22T09:15:05.473Z,76.73
2019-01-22T09:18:10.871Z,76.35
2019-01-22T09:21:25.373Z,76.23
2019-01-22T09:24:10.668Z,76.56
2019-01-22T09:27:14.501Z,76.69
2019-01-22T09:30:12.366Z,76.63
2019-01-22T09:33:23.555Z,76.20
2019-01-22T09:36:34.139Z,74.34
2019-01-22T09:39:01.351Z,73.22
2019-01-22T09:41:29.255Z,73.56
2019-01-22T09:43:56.533Z,73.40
2019-01-22T09:46:23.743Z,72.32
2019-01-22T09:48:51.314Z,72.46
2019-01-22T09:51:18.546Z,72.72
2019-01-22T09:53:45.739Z,73.06
2019-01-22T09:56:12.890Z,72.95
2019-01-22T09:58:40.113Z,72.59
2019-01-22T10:01:07.351Z,72.32
2019-01-22T10:03:34.554Z,72.62
2019-01-22T10:06:01.824Z,72.68
2019-01-22T10:08:29.092Z,72.74
2019-01-22T10:10:56.504Z,71.88
2019-01-22T10:13:23.751Z,71.37
2019-01-22T10:15:51.127Z,70.61
2019-01-22T10:18:18.322Z,69.54
2019-01-22T10:20:45.427Z,69.56
2019-01-22T10:23:14.057Z,69.78
2019-01-22T10:25:41.558Z,70.09
2019-01-22T10:28:08.782Z,70.06
2019-01-22T10:30:35.932Z,69.45
2019-01-22T10:33:03.041Z,69.57
2019-01-22T10:35:30.237Z,69.65
2019-01-22T10:37:57.362Z,69.83
2019-01-22T10:40:24.656Z,70.63
2019-01-22T10:42:51.923Z,70.52
2019-01-22T10:45:19.540Z,70.50
2019-01-22T10:47:46.646Z,70.33
2019-01-22T10:50:15.400Z,70.15
2019-01-22T10:52:42.580Z,70.33
2019-01-22T10:55:11.109Z,70.29
2019-01-22T10:57:38.400Z,70.26
2019-01-22T11:00:09.459Z,69.93
2019-01-22T11:02:36.684Z,69.78
2019-01-22T11:05:07.083Z,69.34
2019-01-22T11:07:34.501Z,69.44
2019-01-22T11:10:01.797Z,69.32
2019-01-22T11:12:29.010Z,68.26
2019-01-22T11:14:56.142Z,66.34
2019-01-22T11:17:23.322Z,66.18
2019-01-22T11:19:50.419Z,66.45
2019-01-22T11:22:17.627Z,66.58
2019-01-22T11:24:44.934Z,66.35
2019-01-22T11:27:12.154Z,66.69
2019-01-22T11:29:39.393Z,66.59
2019-01-22T11:32:06.654Z,66.08
2019-01-22T11:34:33.879Z,66.07
2019-01-22T11:37:01.077Z,65.36
2019-01-22T11:39:28.254Z,65.52
2019-01-22T11:41:55.467Z,65.13
2019-01-22T11:44:22.705Z,65.25
2019-01-22T11:46:49.902Z,66.03
2019-01-22T11:49:23.202Z,65.78
2019-01-22T11:51:46.281Z,65.75
2019-01-22T11:54:13.503Z,66.32
2019-01-22T11:56:41.175Z,66.52
2019-01-22T11:59:08.357Z,66.52
2019-01-22T12:01:35.521Z,66.27
2019-01-22T12:04:02.955Z,66.00
2019-01-22T12:06:30.493Z,65.81
2019-01-22T12:08:57.686Z,65.83
2019-01-22T12:11:24.919Z,64.78
2019-01-22T12:13:54.085Z,65.15
2019-01-22T12:16:21.244Z,65.42
2019-01-22T12:18:48.547Z,65.07
2019-01-22T12:21:15.792Z,64.48
2019-01-22T12:23:50.071Z,64.65
2019-01-22T12:26:17.284Z,64.59
2019-01-22T12:28:44.514Z,64.73
2019-01-22T12:31:12.058Z,64.54
2019-01-22T12:33:39.558Z,65.22
2019-01-22T12:36:06.666Z,65.03
2019-01-22T12:38:33.919Z,64.78
2019-01-22T12:41:01.144Z,64.26
2019-01-22T12:43:28.247Z,63.50
2019-01-22T12:45:55.446Z,63.71
2019-01-22T12:48:22.534Z,63.38
2019-01-22T12:50:49.841Z,63.45
2019-01-22T12:53:17.093Z,63.74
2019-01-22T12:55:44.278Z,63.94
2019-01-22T12:58:11.490Z,63.95
2019-01-22T13:00:38.919Z,64.00
2019-01-22T13:03:06.635Z,64.09
2019-01-22T13:05:57.026Z,64.30
2019-01-22T13:08:24.227Z,63.70
2019-01-22T13:10:51.440Z,63.65
2019-01-22T13:13:18.690Z,64.26
2019-01-22T13:15:45.892Z,64.95
2019-01-22T13:18:12.975Z,65.11
2019-01-22T13:20:41.024Z,65.44
2019-01-22T13:23:08.499Z,65.88
2019-01-22T13:25:35.735Z,65.76
2019-01-22T13:28:02.988Z,65.88
2019-01-22T13:30:30.128Z,66.19
2019-01-22T13:32:57.479Z,66.53
2019-01-22T13:35:24.603Z,66.53
2019-01-22T13:37:51.807Z,66.28
2019-01-22T13:40:19.062Z,66.55
2019-01-22T13:42:46.363Z,66.83
2019-01-22T13:45:16.379Z,67.08
2019-01-22T13:47:43.496Z,66.70
2019-01-22T13:50:13.202Z,67.09
2019-01-22T13:52:40.708Z,67.17
2019-01-22T13:55:10.613Z,66.77
2019-01-22T13:57:37.821Z,67.04
2019-01-22T14:00:09.279Z,67.90
2019-01-22T14:02:36.541Z,67.97
2019-01-22T14:05:04.560Z,68.52
2019-01-22T14:07:31.768Z,68.57
2019-01-22T14:09:59.045Z,68.27
2019-01-22T14:12:26.187Z,68.13
2019-01-22T14:14:53.448Z,68.09
2019-01-22T14:17:20.594Z,68.48
2019-01-22T14:19:47.964Z,68.58
2019-01-22T14:22:15.096Z,68.61
2019-01-22T14:24:42.229Z,68.99
2019-01-22T14:27:09.617Z,68.89
2019-01-22T14:29:38.078Z,68.53
2019-01-22T14:32:08.138Z,67.91
2019-01-22T14:34:35.308Z,68.26
2019-01-22T14:37:02.586Z,68.64
2019-01-22T14:39:29.790Z,68.71
2019-01-22T14:41:56.960Z,67.84
2019-01-22T14:44:24.179Z,68.33
2019-01-22T14:46:51.380Z,67.69
2019-01-22T14:49:18.710Z,68.26
2019-01-22T14:51:46.560Z,68.02
2019-01-22T14:54:13.773Z,68.57
2019-01-22T14:56:41.480Z,67.62
2019-01-22T14:59:08.612Z,67.46
2019-01-22T15:01:35.780Z,67.39
2019-01-22T15:04:03.129Z,67.59
2019-01-22T15:06:30.337Z,67.30
2019-01-22T15:08:57.569Z,68.01
2019-01-22T15:11:24.824Z,67.58
2019-01-22T15:13:53.078Z,67.37
2019-01-22T15:16:21.285Z,67.38
2019-01-22T15:18:48.779Z,68.14
2019-01-22T15:21:16.276Z,67.83
2019-01-22T15:23:44.571Z,67.84
2019-01-22T15:26:11.950Z,67.24
2019-01-22T15:28:39.976Z,67.43
2019-01-22T15:31:07.352Z,67.84
2019-01-22T15:33:37.578Z,68.41
2019-01-22T15:36:06.835Z,68.63
2019-01-22T15:38:34.068Z,68.04
2019-01-22T15:41:01.281Z,67.79
2019-01-22T15:43:30.654Z,67.49
2019-01-22T15:45:59.929Z,67.21
2019-01-22T15:48:27.136Z,67.07
2019-01-22T15:50:56.725Z,66.14
2019-01-22T15:53:23.963Z,66.47
2019-01-22T15:55:51.295Z,66.77
2019-01-22T15:58:19.575Z,66.52
2019-01-22T16:00:46.748Z,66.42
2019-01-22T16:03:13.966Z,66.42
2019-01-22T16:05:41.077Z,67.01
2019-01-22T16:08:08.593Z,66.93
2019-01-22T16:10:35.808Z,66.49
2019-01-22T16:13:03.719Z,66.07
2019-01-22T16:15:30.889Z,65.51
2019-01-22T16:17:58.442Z,64.55
2019-01-22T16:20:26.662Z,65.33
2019-01-22T16:22:54.683Z,66.07
2019-01-22T16:25:22.134Z,66.28
2019-01-22T16:27:49.227Z,66.32
2019-01-22T16:30:18.329Z,66.18
2019-01-22T16:32:45.728Z,65.47
2019-01-22T16:35:14.621Z,63.95
2019-01-22T16:37:41.833Z,64.13
2019-01-22T16:40:10.075Z,64.31
2019-01-22T16:42:37.236Z,64.99
2019-01-22T16:45:06.303Z,65.32
2019-01-22T16:47:33.520Z,64.64
2019-01-22T16:50:01.022Z,64.81
2019-01-22T16:52:28.243Z,64.80
2019-01-22T16:54:55.751Z,65.13
2019-01-22T16:57:22.931Z,65.67
2019-01-22T16:59:50.123Z,64.93
2019-01-22T17:02:17.954Z,64.41
2019-01-22T17:04:45.127Z,64.07
2019-01-22T17:07:12.414Z,64.13
2019-01-22T17:09:39.881Z,64.86
2019-01-22T17:12:07.079Z,64.80
2019-01-22T17:14:34.207Z,64.13
2019-01-22T17:17:01.403Z,64.49
2019-01-22T17:19:28.895Z,64.53
2019-01-22T17:21:56.164Z,64.81
2019-01-22T17:24:23.414Z,64.75
2019-01-22T17:26:50.612Z,63.61
2019-01-22T17:29:17.828Z,63.84
2019-01-22T17:32:04.833Z,63.76
2019-01-22T17:34:41.076Z,64.11
2019-01-22T17:37:08.418Z,64.41
2019-01-22T17:39:35.594Z,64.52
2019-01-22T17:42:02.907Z,63.91
2019-01-22T17:44:30.252Z,63.87
2019-01-22T17:46:57.474Z,64.07
2019-01-22T17:49:24.643Z,63.25
2019-01-22T17:51:51.888Z,63.89
2019-01-22T17:54:19.091Z,63.38
2019-01-22T17:56:46.464Z,63.63
2019-01-22T17:59:13.782Z,63.52
2019-01-22T18:01:40.863Z,63.25
2019-01-22T18:04:08.076Z,63.21
2019-01-22T18:06:35.220Z,62.88
2019-01-22T18:09:05.355Z,62.30
2019-01-22T18:11:37.028Z,62.59
2019-01-22T18:14:04.334Z,63.41
2019-01-22T18:16:31.624Z,64.37
2019-01-22T18:19:03.957Z,64.42
2019-01-22T18:21:33.117Z,64.66
2019-01-22T18:24:00.633Z,64.27
2019-01-22T18:26:27.856Z,63.51
2019-01-22T18:28:55.094Z,63.79
2019-01-22T18:31:22.315Z,64.10
2019-01-22T18:33:49.571Z,64.69
2019-01-22T18:36:16.828Z,65.20
2019-01-22T18:38:44.070Z,64.15
2019-01-22T18:41:11.300Z,63.62
2019-01-22T18:43:38.435Z,63.90
2019-01-22T18:46:06.537Z,64.67
2019-01-22T18:48:33.716Z,63.97
2019-01-22T18:51:00.823Z,63.88
2019-01-22T18:53:28.047Z,64.26
2019-01-22T18:55:55.237Z,64.06
2019-01-22T18:58:22.896Z,63.82
2019-01-22T19:00:50.151Z,63.84
2019-01-22T19:03:17.437Z,64.37
2019-01-22T19:05:44.910Z,64.02
2019-01-22T19:08:12.126Z,64.41
2019-01-22T19:10:39.504Z,64.22
2019-01-22T19:13:06.962Z,63.82
2019-01-22T19:15:34.175Z,63.67
2019-01-22T19:18:01.718Z,63.96
2019-01-22T19:20:29.540Z,64.12
2019-01-22T19:22:57.036Z,64.50
2019-01-22T19:25:25.717Z,63.42
2019-01-22T19:27:53.029Z,63.67
2019-01-22T19:30:22.094Z,63.63
2019-01-22T19:32:49.332Z,64.03
2019-01-22T19:35:16.454Z,64.14
2019-01-22T19:37:43.708Z,64.29
2019-01-22T19:40:12.006Z,64.10
2019-01-22T19:42:39.213Z,63.26
2019-01-22T19:45:09.929Z,63.43
2019-01-22T19:47:37.095Z,63.36
2019-01-22T19:50:06.526Z,63.23
2019-01-22T19:52:34.122Z,63.48
2019-01-22T19:55:01.235Z,63.86
2019-01-22T19:57:28.546Z,64.09
2019-01-22T19:59:56.015Z,64.11
2019-01-22T20:02:23.243Z,64.34
2019-01-22T20:04:50.453Z,64.29
2019-01-22T20:07:17.677Z,64.62
2019-01-22T20:09:44.879Z,65.00
2019-01-22T20:12:12.418Z,65.07
2019-01-22T20:14:39.572Z,65.41
2019-01-22T20:17:06.761Z,65.25
2019-01-22T20:19:33.920Z,64.82
2019-01-22T20:22:01.143Z,64.58
2019-01-22T20:24:28.361Z,64.38
2019-01-22T20:26:55.465Z,64.82
2019-01-22T20:29:22.721Z,64.93
2019-01-22T20:31:49.893Z,64.78
2019-01-22T20:34:17.306Z,64.81
2019-01-22T20:36:44.556Z,65.00
2019-01-22T20:39:12.033Z,65.14
2019-01-22T20:41:39.269Z,65.04
2019-01-22T20:44:06.462Z,64.70
2019-01-22T20:46:33.668Z,64.99
2019-01-22T20:49:00.895Z,64.99
2019-01-22T20:51:28.170Z,64.83
2019-01-22T20:53:55.324Z,65.06
2019-01-22T20:56:22.672Z,65.82
2019-01-22T20:58:49.808Z,65.53
2019-01-22T21:01:17.016Z,65.33
2019-01-22T21:03:44.220Z,65.38
2019-01-22T21:06:11.689Z,65.39
2019-01-22T21:08:38.894Z,65.85
2019-01-22T21:11:07.247Z,65.80
2019-01-22T21:13:34.422Z,65.40
2019-01-22T21:16:01.787Z,65.47
2019-01-22T21:18:29.689Z,65.62
2019-01-22T21:20:56.801Z,65.64
2019-01-22T21:23:25.138Z,65.93
2019-01-22T21:25:52.389Z,66.29
2019-01-22T21:28:20.043Z,65.48
2019-01-22T21:30:49.835Z,65.78
2019-01-22T21:33:17.106Z,66.13
2019-01-22T21:35:44.346Z,66.03
2019-01-22T21:38:11.569Z,65.70
2019-01-22T21:40:38.669Z,66.12
2019-01-22T21:43:06.297Z,65.92
2019-01-22T21:45:33.615Z,65.92
2019-01-22T21:48:00.717Z,66.40
2019-01-22T21:50:28.012Z,66.42
2019-01-22T21:52:57.080Z,66.45
2019-01-22T21:55:24.605Z,66.24
2019-01-22T21:57:51.887Z,66.10
2019-01-22T22:00:20.711Z,65.95
2019-01-22T22:02:48.099Z,65.86
2019-01-22T22:05:16.781Z,66.04
2019-01-22T22:07:44.026Z,65.85
2019-01-22T22:10:13.748Z,65.39
2019-01-22T22:12:41.120Z,65.94
2019-01-22T22:15:09.404Z,66.20
2019-01-22T22:17:36.494Z,66.41
2019-01-22T22:20:05.440Z,66.59
2019-01-22T22:22:33.228Z,65.93
2019-01-22T22:25:00.438Z,66.00
2019-01-22T22:27:27.517Z,65.83
2019-01-22T22:29:54.787Z,65.95
2019-01-22T22:32:22.074Z,65.74
2019-01-22T22:34:49.269Z,65.81
2019-01-22T22:37:16.713Z,66.02
2019-01-22T22:39:43.910Z,66.21
2019-01-22T22:42:11.149Z,65.92
2019-01-22T22:44:38.326Z,66.06
2019-01-22T22:47:05.794Z,66.41
2019-01-22T22:49:33.269Z,66.60
2019-01-22T22:52:00.501Z,66.92
2019-01-22T22:54:27.668Z,66.44
2019-01-22T22:56:55.139Z,66.37
2019-01-22T22:59:22.573Z,66.39
2019-01-22T23:01:49.790Z,66.53
2019-01-22T23:04:17.965Z,66.58
2019-01-22T23:06:45.237Z,66.32
2019-01-22T23:09:12.301Z,66.22
2019-01-22T23:11:39.621Z,66.53
2019-01-22T23:14:06.845Z,67.08
2019-01-22T23:16:34.083Z,67.15
2019-01-22T23:19:01.259Z,67.07
2019-01-22T23:21:28.549Z,67.03
2019-01-22T23:23:55.975Z,66.44
2019-01-22T23:26:23.245Z,66.26
2019-01-22T23:28:50.456Z,66.61
2019-01-22T23:31:17.640Z,67.26
2019-01-22T23:33:44.847Z,66.88
2019-01-22T23:36:12.184Z,66.57
2019-01-22T23:38:39.713Z,66.98
2019-01-22T23:41:07.058Z,67.09
2019-01-22T23:43:34.286Z,66.55
2019-01-22T23:46:01.358Z,66.88
2019-01-22T23:48:28.833Z,66.76
2019-01-22T23:50:55.934Z,66.56
2019-01-22T23:53:23.148Z,66.61
2019-01-22T23:55:50.492Z,66.84
2019-01-22T23:58:17.729Z,67.06
